createdAt,value
2018-11-04T00:00:52.223Z,71.24
2018-11-04T00:03:19.613Z,70.90
2018-11-04T00:05:47.139Z,70.57
2018-11-04T00:08:14.728Z,70.29
2018-11-04T00:10:42.635Z,70.91
2018-11-04T00:13:10.101Z,70.70
2018-11-04T00:15:37.451Z,71.05
2018-11-04T00:18:05.251Z,93.85
2018-11-04T00:20:32.600Z,96.09
2018-11-04T00:22:59.933Z,91.40
2018-11-04T00:25:27.303Z,72.35
2018-11-04T00:27:54.663Z,65.74
2018-11-04T00:30:22.008Z,68.36
2018-11-04T00:32:49.397Z,69.46
2018-11-04T00:35:17.140Z,70.01
2018-11-04T00:37:46.035Z,70.52
2018-11-04T00:40:13.660Z,71.18
2018-11-04T00:42:41.040Z,71.57
2018-11-04T00:45:08.816Z,71.34
2018-11-04T00:47:36.803Z,70.94
2018-11-04T00:50:06.330Z,71.36
2018-11-04T00:52:33.658Z,71.04
2018-11-04T00:55:01.090Z,71.32
2018-11-04T00:57:28.651Z,71.50
2018-11-04T00:59:56.076Z,71.21
2018-11-04T01:02:23.430Z,71.67
2018-11-04T01:04:50.745Z,71.42
2018-11-04T01:07:18.606Z,71.81
2018-11-04T01:09:45.932Z,71.64
2018-11-04T01:12:13.281Z,71.79
2018-11-04T01:14:40.645Z,71.66
2018-11-04T01:17:08.135Z,71.59
2018-11-04T01:19:35.832Z,71.50
2018-11-04T01:22:03.040Z,71.62
2018-11-04T01:24:30.854Z,71.97
2018-11-04T01:27:00.342Z,71.91
2018-11-04T01:29:28.231Z,72.21
2018-11-04T01:31:55.414Z,72.08
2018-11-04T01:34:22.696Z,71.97
2018-11-04T01:36:50.095Z,72.21
2018-11-04T01:39:18.250Z,71.94
2018-11-04T01:41:45.466Z,71.86
2018-11-04T01:44:12.693Z,71.95
2018-11-04T01:46:41.046Z,72.14
2018-11-04T01:49:08.417Z,72.50
2018-11-04T01:51:35.952Z,72.54
2018-11-04T01:54:03.420Z,72.32
2018-11-04T01:56:30.655Z,72.45
2018-11-04T01:58:57.942Z,72.19
2018-11-04T02:01:25.191Z,72.25
2018-11-04T02:03:52.523Z,72.11
2018-11-04T02:06:19.690Z,72.21
2018-11-04T02:08:46.981Z,72.04
2018-11-04T02:11:14.195Z,72.05
2018-11-04T02:13:41.361Z,72.10
2018-11-04T02:16:08.570Z,71.80
2018-11-04T02:18:35.813Z,72.42
2018-11-04T02:21:04.071Z,72.28
2018-11-04T02:23:31.311Z,72.46
2018-11-04T02:25:58.868Z,72.76
2018-11-04T02:28:26.163Z,72.57
2018-11-04T02:30:53.370Z,72.54
2018-11-04T02:33:20.658Z,71.85
2018-11-04T02:35:47.905Z,72.50
2018-11-04T02:38:15.258Z,72.55
2018-11-04T02:40:42.818Z,72.64
2018-11-04T02:43:10.194Z,72.47
2018-11-04T02:45:37.570Z,72.40
2018-11-04T02:48:04.784Z,72.48
2018-11-04T02:50:32.010Z,72.42
2018-11-04T02:52:59.249Z,72.23
2018-11-04T02:55:26.570Z,72.26
2018-11-04T02:57:53.975Z,72.06
2018-11-04T03:00:21.397Z,71.99
2018-11-04T03:02:48.570Z,72.38
2018-11-04T03:05:15.723Z,72.41
2018-11-04T03:07:43.055Z,72.45
2018-11-04T03:10:11.511Z,72.58
2018-11-04T03:12:38.863Z,72.54
2018-11-04T03:15:06.265Z,72.36
2018-11-04T03:17:33.493Z,72.43
2018-11-04T03:20:00.782Z,72.47
2018-11-04T03:22:28.329Z,72.29
2018-11-04T03:24:55.567Z,72.33
2018-11-04T03:27:22.871Z,71.98
2018-11-04T03:29:50.188Z,72.03
2018-11-04T03:32:17.938Z,72.20
2018-11-04T03:34:45.153Z,72.40
2018-11-04T03:37:12.669Z,72.33
2018-11-04T03:39:40.197Z,72.43
2018-11-04T03:42:07.475Z,72.51
2018-11-04T03:44:34.788Z,72.53
2018-11-04T03:47:02.061Z,72.54
2018-11-04T03:49:29.266Z,72.70
2018-11-04T03:51:56.638Z,72.64
2018-11-04T03:54:23.914Z,72.50
2018-11-04T03:56:51.302Z,72.80
2018-11-04T03:59:18.578Z,72.97
2018-11-04T04:01:45.907Z,72.93
2018-11-04T04:04:13.410Z,72.64
2018-11-04T04:06:40.644Z,72.52
2018-11-04T04:09:08.784Z,72.32
2018-11-04T04:11:36.157Z,72.30
2018-11-04T04:14:03.511Z,72.42
2018-11-04T04:16:30.867Z,72.63
2018-11-04T04:18:58.126Z,72.35
2018-11-04T04:21:25.383Z,72.80
2018-11-04T04:23:53.021Z,73.06
2018-11-04T04:26:20.419Z,72.85
2018-11-04T04:28:47.859Z,72.28
2018-11-04T04:31:15.134Z,73.13
2018-11-04T04:33:42.344Z,72.50
2018-11-04T04:36:09.509Z,73.01
2018-11-04T04:38:36.678Z,72.99
2018-11-04T04:41:04.393Z,72.84
2018-11-04T04:43:31.673Z,72.79
2018-11-04T04:45:58.863Z,73.05
2018-11-04T04:48:26.127Z,73.19
2018-11-04T04:50:53.473Z,73.23
2018-11-04T04:53:23.249Z,73.55
2018-11-04T04:55:51.564Z,73.12
2018-11-04T04:58:18.902Z,73.52
2018-11-04T05:00:46.741Z,73.06
2018-11-04T05:03:14.019Z,73.55
2018-11-04T05:05:41.190Z,73.42
2018-11-04T05:08:08.523Z,73.08
2018-11-04T05:10:35.796Z,73.32
2018-11-04T05:13:03.050Z,73.16
2018-11-04T05:15:30.486Z,73.16
2018-11-04T05:17:57.861Z,73.39
2018-11-04T05:20:25.139Z,73.75
2018-11-04T05:22:52.480Z,73.70
2018-11-04T05:25:19.920Z,73.85
2018-11-04T05:27:47.256Z,73.78
2018-11-04T05:30:14.937Z,73.74
2018-11-04T05:32:42.241Z,73.83
2018-11-04T05:35:09.567Z,73.41
2018-11-04T05:37:37.362Z,73.74
2018-11-04T05:42:42.359Z,73.58
2018-11-04T05:45:09.708Z,73.82
2018-11-04T05:47:37.080Z,73.71
2018-11-04T05:50:04.873Z,73.76
2018-11-04T05:52:32.140Z,74.00
2018-11-04T05:54:59.504Z,74.23
2018-11-04T05:57:26.665Z,73.96
2018-11-04T05:59:53.930Z,73.94
2018-11-04T06:02:21.215Z,74.12
2018-11-04T06:04:48.748Z,74.05
2018-11-04T06:07:16.013Z,74.06
2018-11-04T06:09:43.306Z,74.25
2018-11-04T06:12:10.494Z,73.89
2018-11-04T06:14:37.742Z,74.09
2018-11-04T06:17:04.969Z,74.07
2018-11-04T06:19:32.131Z,74.22
2018-11-04T06:21:59.327Z,74.26
2018-11-04T06:24:26.697Z,74.21
2018-11-04T06:26:54.109Z,74.04
2018-11-04T06:29:21.680Z,74.11
2018-11-04T06:31:48.836Z,73.71
2018-11-04T06:34:16.180Z,74.01
2018-11-04T06:36:43.483Z,74.24
2018-11-04T06:39:10.750Z,74.21
2018-11-04T06:41:38.089Z,74.58
2018-11-04T06:44:06.309Z,74.77
2018-11-04T06:46:33.750Z,74.55
2018-11-04T06:49:01.022Z,74.32
2018-11-04T06:51:28.287Z,74.14
2018-11-04T06:53:55.508Z,73.71
2018-11-04T06:56:22.771Z,74.00
2018-11-04T06:58:50.311Z,74.33
2018-11-04T07:01:17.642Z,74.05
2018-11-04T07:03:56.447Z,73.83
2018-11-04T07:06:23.902Z,73.90
2018-11-04T07:08:51.202Z,73.92
2018-11-04T07:11:18.884Z,74.04
2018-11-04T07:13:46.266Z,74.22
2018-11-04T07:16:13.488Z,73.70
2018-11-04T07:18:40.779Z,73.93
2018-11-04T07:21:08.305Z,73.41
2018-11-04T07:23:35.557Z,73.34
2018-11-04T07:26:02.705Z,73.45
2018-11-04T07:28:29.875Z,73.48
2018-11-04T07:30:57.153Z,73.31
2018-11-04T07:33:24.501Z,73.63
2018-11-04T07:35:52.036Z,73.56
2018-11-04T07:38:19.565Z,73.35
2018-11-04T07:40:47.165Z,73.67
2018-11-04T07:43:14.603Z,73.91
2018-11-04T07:45:41.875Z,73.55
2018-11-04T07:48:09.279Z,73.13
2018-11-04T07:50:36.650Z,73.23
2018-11-04T07:53:03.826Z,73.04
2018-11-04T07:55:31.099Z,73.25
2018-11-04T07:57:58.287Z,73.11
2018-11-04T08:00:25.701Z,73.73
2018-11-04T08:02:53.025Z,73.45
2018-11-04T08:05:20.292Z,73.18
2018-11-04T08:07:48.004Z,73.41
2018-11-04T08:10:15.537Z,73.31
2018-11-04T08:12:42.783Z,73.35
2018-11-04T08:17:47.904Z,72.96
2018-11-04T08:20:15.308Z,73.04
2018-11-04T08:22:42.628Z,72.83
2018-11-04T08:25:09.937Z,73.21
2018-11-04T08:27:37.165Z,73.23
2018-11-04T08:30:05.837Z,72.37
2018-11-04T08:32:33.195Z,72.71
2018-11-04T08:35:00.521Z,72.90
2018-11-04T08:37:27.989Z,73.61
2018-11-04T08:39:55.517Z,72.85
2018-11-04T08:42:22.642Z,72.43
2018-11-04T08:44:49.949Z,72.86
2018-11-04T08:47:17.493Z,73.02
2018-11-04T08:49:45.064Z,72.81
2018-11-04T08:52:12.339Z,72.63
2018-11-04T08:54:39.890Z,72.75
2018-11-04T08:57:07.466Z,72.71
2018-11-04T08:59:35.302Z,72.89
2018-11-04T09:02:02.980Z,72.50
2018-11-04T09:04:31.036Z,72.17
2018-11-04T09:06:58.601Z,73.09
2018-11-04T09:09:25.835Z,72.87
2018-11-04T09:11:53.146Z,72.54
2018-11-04T09:14:20.737Z,72.33
2018-11-04T09:16:48.016Z,72.60
2018-11-04T09:19:15.836Z,72.63
2018-11-04T09:21:43.357Z,71.84
2018-11-04T09:24:10.500Z,71.87
2018-11-04T09:26:37.971Z,71.66
2018-11-04T09:29:05.214Z,71.55
2018-11-04T09:31:32.429Z,71.62
2018-11-04T09:33:59.864Z,71.83
2018-11-04T09:36:27.225Z,71.60
2018-11-04T09:38:54.664Z,71.12
2018-11-04T09:41:22.153Z,71.02
2018-11-04T09:43:49.463Z,71.20
2018-11-04T09:46:16.968Z,70.97
2018-11-04T09:48:44.224Z,71.53
2018-11-04T09:51:11.707Z,71.33
2018-11-04T09:53:39.071Z,70.79
2018-11-04T09:56:06.575Z,70.56
2018-11-04T09:58:34.075Z,70.79
2018-11-04T10:01:01.387Z,71.11
2018-11-04T10:03:28.901Z,70.62
2018-11-04T10:05:56.339Z,70.72
2018-11-04T10:08:23.825Z,70.87
2018-11-04T10:10:51.345Z,70.61
2018-11-04T10:13:18.746Z,84.15
2018-11-04T10:15:46.102Z,78.33
2018-11-04T10:18:13.583Z,73.97
2018-11-04T10:20:41.187Z,75.90
2018-11-04T10:23:08.465Z,74.96
2018-11-04T10:25:35.837Z,73.66
2018-11-04T10:28:03.268Z,73.62
2018-11-04T10:30:30.593Z,70.75
2018-11-04T10:32:57.878Z,72.08
2018-11-04T10:35:25.328Z,68.34
2018-11-04T10:37:52.705Z,66.21
2018-11-04T10:40:20.127Z,67.08
2018-11-04T10:42:47.439Z,67.74
2018-11-04T10:45:14.695Z,68.03
2018-11-04T10:47:42.114Z,67.65
2018-11-04T10:50:11.094Z,68.17
2018-11-04T10:52:38.579Z,68.68
2018-11-04T10:55:06.475Z,68.64
2018-11-04T10:57:33.761Z,68.38
2018-11-04T11:00:01.118Z,68.11
2018-11-04T11:02:29.838Z,67.98
2018-11-04T11:04:57.590Z,67.90
2018-11-04T11:07:24.810Z,68.58
2018-11-04T11:09:52.173Z,68.72
2018-11-04T11:12:19.639Z,68.81
2018-11-04T11:14:47.092Z,68.19
2018-11-04T11:17:15.485Z,68.25
2018-11-04T11:19:43.030Z,68.59
2018-11-04T11:22:10.486Z,68.30
2018-11-04T11:24:38.061Z,67.88
2018-11-04T11:27:05.443Z,67.43
2018-11-04T11:29:32.734Z,67.90
2018-11-04T11:32:00.107Z,68.57
2018-11-04T11:34:27.792Z,68.24
2018-11-04T11:36:55.545Z,67.76
2018-11-04T11:39:22.948Z,68.00
2018-11-04T11:41:50.445Z,68.04
2018-11-04T11:44:17.689Z,67.83
2018-11-04T11:46:44.953Z,68.52
2018-11-04T11:49:12.873Z,68.09
2018-11-04T11:51:40.365Z,67.99
2018-11-04T11:54:08.203Z,68.12
2018-11-04T11:56:35.642Z,68.21
2018-11-04T11:59:02.960Z,67.53
2018-11-04T12:01:30.185Z,68.01
2018-11-04T12:03:57.767Z,67.26
2018-11-04T12:06:25.145Z,67.13
2018-11-04T12:08:52.383Z,67.78
2018-11-04T12:11:19.711Z,67.12
2018-11-04T12:13:47.139Z,67.59
2018-11-04T12:16:14.571Z,67.00
2018-11-04T12:18:41.950Z,66.81
2018-11-04T12:21:09.409Z,67.12
2018-11-04T12:23:36.733Z,66.97
2018-11-04T12:26:04.059Z,67.05
2018-11-04T12:28:32.920Z,66.96
2018-11-04T12:31:00.501Z,67.09
2018-11-04T12:33:27.981Z,66.45
2018-11-04T12:35:55.362Z,66.37
2018-11-04T12:38:22.792Z,67.01
2018-11-04T12:40:50.682Z,66.85
2018-11-04T12:43:17.936Z,66.46
2018-11-04T12:45:45.434Z,67.13
2018-11-04T12:48:12.617Z,67.30
2018-11-04T12:50:39.853Z,66.83
2018-11-04T12:53:07.080Z,67.23
2018-11-04T12:55:34.407Z,67.33
2018-11-04T12:58:01.698Z,67.52
2018-11-04T13:00:28.959Z,67.07
2018-11-04T13:02:56.206Z,67.23
2018-11-04T13:05:23.471Z,67.93
2018-11-04T13:07:50.736Z,67.92
2018-11-04T13:10:18.261Z,68.18
2018-11-04T13:12:45.482Z,68.67
2018-11-04T13:15:13.652Z,68.31
2018-11-04T13:17:41.384Z,68.59
2018-11-04T13:20:08.635Z,67.85
2018-11-04T13:22:36.474Z,68.60
2018-11-04T13:25:04.211Z,68.30
2018-11-04T13:27:31.469Z,68.92
2018-11-04T13:29:58.880Z,68.05
2018-11-04T13:32:26.486Z,68.46
2018-11-04T13:34:53.980Z,68.00
2018-11-04T13:37:21.895Z,68.57
2018-11-04T13:39:49.462Z,68.43
2018-11-04T13:42:16.850Z,68.50
2018-11-04T13:44:44.118Z,68.31
2018-11-04T13:47:11.610Z,68.74
2018-11-04T13:49:38.920Z,68.33
2018-11-04T13:52:06.326Z,68.92
2018-11-04T13:54:33.906Z,68.56
2018-11-04T13:57:02.533Z,68.51
2018-11-04T13:59:29.969Z,68.85
2018-11-04T14:01:57.641Z,68.90
2018-11-04T14:04:25.003Z,68.80
2018-11-04T14:06:52.443Z,69.03
2018-11-04T14:09:19.777Z,68.69
2018-11-04T14:11:47.078Z,69.09
2018-11-04T14:14:14.496Z,68.88
2018-11-04T14:16:42.353Z,69.26
2018-11-04T14:19:10.271Z,69.74
2018-11-04T14:21:37.800Z,69.52
2018-11-04T14:24:05.182Z,69.63
2018-11-04T14:26:32.617Z,70.25
2018-11-04T14:29:00.046Z,70.15
2018-11-04T14:31:27.374Z,70.49
2018-11-04T14:33:54.592Z,69.81
2018-11-04T14:36:22.090Z,70.31
2018-11-04T14:38:49.389Z,70.28
2018-11-04T14:41:16.862Z,70.76
2018-11-04T14:43:44.574Z,70.29
2018-11-04T14:46:11.861Z,70.66
2018-11-04T14:48:39.424Z,71.11
2018-11-04T14:51:06.888Z,71.05
2018-11-04T14:53:34.133Z,71.53
2018-11-04T14:56:02.523Z,70.96
2018-11-04T14:58:30.134Z,70.75
2018-11-04T15:00:57.482Z,71.05
2018-11-04T15:03:25.782Z,71.31
2018-11-04T15:05:54.608Z,71.74
2018-11-04T15:08:22.065Z,71.12
2018-11-04T15:10:49.515Z,71.39
2018-11-04T15:13:16.829Z,71.36
2018-11-04T15:15:44.416Z,71.47
2018-11-04T15:18:11.777Z,71.19
2018-11-04T15:20:39.195Z,71.71
2018-11-04T15:23:06.456Z,71.58
2018-11-04T15:25:33.806Z,71.41
2018-11-04T15:28:01.004Z,72.20
2018-11-04T15:30:28.311Z,72.02
2018-11-04T15:32:55.605Z,72.20
2018-11-04T15:35:22.926Z,72.52
2018-11-04T15:37:50.222Z,72.57
2018-11-04T15:40:17.428Z,71.98
2018-11-04T15:42:44.794Z,72.81
2018-11-04T15:45:13.086Z,72.24
2018-11-04T15:47:40.810Z,73.28
2018-11-04T15:50:10.576Z,72.86
2018-11-04T15:52:38.185Z,72.27
2018-11-04T15:55:06.108Z,72.58
2018-11-04T15:57:33.641Z,72.38
2018-11-04T16:00:01.110Z,72.66
2018-11-04T16:02:28.358Z,72.57
2018-11-04T16:04:55.738Z,73.02
2018-11-04T16:07:23.066Z,73.20
2018-11-04T16:09:50.396Z,73.09
2018-11-04T16:12:17.804Z,73.85
2018-11-04T16:14:46.105Z,73.53
2018-11-04T16:17:13.527Z,73.80
2018-11-04T16:19:40.968Z,73.72
2018-11-04T16:24:44.547Z,73.71
2018-11-04T16:27:11.950Z,74.15
2018-11-04T16:29:40.043Z,73.71
2018-11-04T16:32:08.256Z,73.61
2018-11-04T16:34:36.158Z,73.57
2018-11-04T16:37:03.723Z,73.28
2018-11-04T16:39:31.300Z,73.59
2018-11-04T16:41:58.728Z,73.06
2018-11-04T16:44:26.517Z,73.40
2018-11-04T16:46:53.958Z,74.11
2018-11-04T16:49:21.308Z,73.86
2018-11-04T16:51:48.768Z,73.10
2018-11-04T16:54:16.169Z,73.76
2018-11-04T16:56:43.505Z,73.57
2018-11-04T16:59:10.894Z,73.44
2018-11-04T17:01:38.354Z,73.32
2018-11-04T17:04:05.925Z,73.32
2018-11-04T17:06:33.283Z,73.69
2018-11-04T17:09:00.573Z,73.56
2018-11-04T17:11:28.074Z,72.93
2018-11-04T17:13:55.260Z,73.51
2018-11-04T17:16:23.667Z,74.40
2018-11-04T17:18:51.126Z,74.06
2018-11-04T17:21:18.473Z,73.76
2018-11-04T17:23:45.919Z,73.27
2018-11-04T17:26:13.294Z,73.35
2018-11-04T17:28:40.582Z,74.14
2018-11-04T17:31:07.870Z,73.76
2018-11-04T17:33:35.655Z,73.59
2018-11-04T17:36:03.224Z,74.02
2018-11-04T17:38:30.624Z,73.93
2018-11-04T17:40:58.178Z,73.69
2018-11-04T17:43:25.663Z,74.43
2018-11-04T17:45:53.013Z,74.05
2018-11-04T17:48:20.264Z,73.62
2018-11-04T17:50:47.780Z,73.78
2018-11-04T17:53:15.056Z,74.09
2018-11-04T17:55:42.443Z,74.18
2018-11-04T17:58:09.798Z,73.88
2018-11-04T18:00:37.272Z,73.84
2018-11-04T18:03:05.055Z,73.77
2018-11-04T18:05:32.376Z,74.46
2018-11-04T18:07:59.758Z,74.95
2018-11-04T18:10:27.158Z,74.09
2018-11-04T18:12:54.340Z,74.44
2018-11-04T18:15:22.394Z,74.31
2018-11-04T18:17:50.233Z,74.66
2018-11-04T18:20:18.096Z,74.29
2018-11-04T18:22:45.513Z,74.46
2018-11-04T18:25:13.213Z,74.85
2018-11-04T18:27:40.658Z,74.06
2018-11-04T18:30:10.192Z,74.74
2018-11-04T18:32:37.476Z,74.50
2018-11-04T18:35:04.894Z,74.49
2018-11-04T18:37:32.257Z,74.37
2018-11-04T18:39:59.635Z,74.18
2018-11-04T18:42:26.882Z,74.74
2018-11-04T18:44:54.231Z,74.83
2018-11-04T18:47:21.609Z,74.82
2018-11-04T18:49:49.055Z,74.59
2018-11-04T18:52:16.369Z,74.38
2018-11-04T18:54:43.622Z,74.39
2018-11-04T18:57:10.976Z,75.16
2018-11-04T18:59:38.218Z,74.93
2018-11-04T19:02:07.882Z,74.56
2018-11-04T19:04:35.570Z,75.32
2018-11-04T19:07:02.994Z,75.16
2018-11-04T19:09:30.344Z,75.28
2018-11-04T19:11:58.014Z,75.69
2018-11-04T19:14:25.169Z,75.60
2018-11-04T19:16:52.709Z,75.13
2018-11-04T19:19:20.091Z,75.22
2018-11-04T19:21:47.495Z,75.47
2018-11-04T19:24:14.838Z,75.31
2018-11-04T19:26:42.274Z,75.15
2018-11-04T19:29:09.472Z,75.95
2018-11-04T19:31:36.957Z,75.52
2018-11-04T19:34:04.372Z,75.24
2018-11-04T19:36:31.751Z,75.13
2018-11-04T19:38:59.112Z,74.93
2018-11-04T19:41:26.414Z,75.18
2018-11-04T19:43:53.797Z,75.33
2018-11-04T19:46:21.053Z,75.16
2018-11-04T19:48:48.508Z,75.05
2018-11-04T19:51:15.731Z,75.42
2018-11-04T19:53:42.998Z,75.39
2018-11-04T19:56:10.414Z,76.11
2018-11-04T19:58:38.012Z,76.64
2018-11-04T20:01:06.560Z,76.05
2018-11-04T20:03:34.005Z,75.94
2018-11-04T20:06:01.791Z,75.69
2018-11-04T20:08:29.159Z,76.07
2018-11-04T20:10:56.583Z,75.70
2018-11-04T20:13:30.455Z,76.03
2018-11-04T20:15:57.998Z,75.91
2018-11-04T20:18:31.134Z,76.06
2018-11-04T20:20:58.501Z,76.41
2018-11-04T20:23:25.780Z,76.33
2018-11-04T20:25:59.368Z,76.21
2018-11-04T20:28:26.708Z,76.55
2018-11-04T20:30:54.250Z,76.61
2018-11-04T20:33:21.610Z,76.21
2018-11-04T20:35:49.021Z,76.16
2018-11-04T20:38:16.290Z,76.63
2018-11-04T20:40:49.479Z,76.19
2018-11-04T20:43:17.297Z,76.02
2018-11-04T20:45:44.516Z,75.78
2018-11-04T20:48:17.737Z,76.35
2018-11-04T20:50:50.623Z,76.26
2018-11-04T20:53:18.015Z,76.11
2018-11-04T20:55:50.933Z,76.45
2018-11-04T20:58:18.718Z,76.86
2018-11-04T21:00:45.856Z,76.47
2018-11-04T21:03:14.420Z,76.85
2018-11-04T21:05:41.740Z,76.57
2018-11-04T21:08:09.246Z,77.24
2018-11-04T21:10:37.830Z,76.99
2018-11-04T21:13:05.131Z,77.05
2018-11-04T21:15:32.506Z,76.96
2018-11-04T21:17:59.889Z,77.29
2018-11-04T21:20:27.139Z,77.87
2018-11-04T21:22:54.357Z,77.26
2018-11-04T21:25:21.807Z,78.09
2018-11-04T21:27:49.157Z,77.67
2018-11-04T21:30:16.480Z,77.57
2018-11-04T21:32:43.931Z,76.90
2018-11-04T21:35:11.305Z,77.53
2018-11-04T21:37:38.658Z,76.70
2018-11-04T21:40:07.231Z,77.06
2018-11-04T21:42:34.600Z,76.81
2018-11-04T21:45:01.919Z,77.17
2018-11-04T21:47:29.215Z,76.18
2018-11-04T21:49:56.548Z,77.02
2018-11-04T21:52:23.842Z,76.61
2018-11-04T21:54:51.029Z,77.30
2018-11-04T21:57:18.788Z,77.62
2018-11-04T21:59:46.044Z,77.20
2018-11-04T22:02:13.332Z,77.63
2018-11-04T22:04:40.617Z,76.99
2018-11-04T22:07:07.806Z,77.35
2018-11-04T22:09:35.108Z,77.11
2018-11-04T22:12:02.470Z,77.54
2018-11-04T22:14:29.824Z,77.55
2018-11-04T22:16:57.077Z,77.10
2018-11-04T22:19:24.366Z,77.45
2018-11-04T22:21:52.254Z,77.37
2018-11-04T22:24:19.629Z,76.80
2018-11-04T22:26:47.061Z,77.04
2018-11-04T22:29:14.270Z,77.18
2018-11-04T22:31:41.716Z,76.94
2018-11-04T22:34:09.465Z,77.46
2018-11-04T22:36:36.786Z,77.27
2018-11-04T22:39:06.265Z,77.21
2018-11-04T22:41:33.626Z,77.05
2018-11-04T22:44:01.028Z,77.82
2018-11-04T22:46:28.270Z,77.80
2018-11-04T22:48:55.966Z,78.21
2018-11-04T22:51:24.542Z,78.33
2018-11-04T22:53:52.097Z,77.88
2018-11-04T22:56:19.633Z,78.14
2018-11-04T22:58:47.290Z,77.89
2018-11-04T23:01:14.751Z,78.39
2018-11-04T23:03:42.489Z,78.24
2018-11-04T23:06:09.838Z,78.05
2018-11-04T23:08:37.288Z,77.42
2018-11-04T23:11:04.664Z,77.47
2018-11-04T23:13:32.446Z,78.11
2018-11-04T23:15:59.872Z,78.32
2018-11-04T23:18:27.337Z,77.93
2018-11-04T23:20:54.643Z,78.02
2018-11-04T23:23:22.210Z,78.34
2018-11-04T23:25:49.502Z,77.77
2018-11-04T23:28:17.575Z,77.84
2018-11-04T23:30:44.993Z,77.98
2018-11-04T23:33:12.390Z,78.31
2018-11-04T23:35:39.638Z,77.93
2018-11-04T23:38:06.907Z,78.59
2018-11-04T23:40:34.200Z,78.33
2018-11-04T23:43:01.653Z,77.98
2018-11-04T23:45:28.946Z,78.19
2018-11-04T23:48:01.121Z,78.23
2018-11-04T23:50:29.804Z,78.22
2018-11-04T23:52:57.030Z,77.60
2018-11-04T23:55:24.366Z,78.37
2018-11-04T23:57:51.785Z,78.87
